Time;durP1;ratioP1;P1;durP2;ratioP2;P2;SDS_P1;SDS_P2;PMS_P1;PMS_P2;Temp;Humidity;BMP_temperature;BMP_pressure;BME280_temperature;BME280_humidity;BME280_pressure;Samples;Min_cycle;Max_cycle;Signal;HPM_P1;HPM_P2
2022/07/05 00:02:22;;;;;;;;;2.67;2.00;;;;;26.43;57.08;98509.31;4931844;28;103940;-53
2022/07/05 00:04:50;;;;;;;;;4.00;4.00;;;;;26.42;56.73;98513.25;4932106;28;103786;-53
2022/07/05 00:07:18;;;;;;;;;3.00;3.00;;;;;26.41;56.65;98517.13;4911603;28;102709;-53
2022/07/05 00:09:49;;;;;;;;;3.33;3.33;;;;;26.42;56.83;98517.97;4909458;28;102976;-54
2022/07/05 00:12:17;;;;;;;;;3.67;3.67;;;;;26.41;56.60;98513.53;4929465;28;104258;-53
2022/07/05 00:14:47;;;;;;;;;4.00;4.00;;;;;26.42;56.94;98513.25;4934340;28;102131;-53
2022/07/05 00:17:14;;;;;;;;;2.00;2.00;;;;;26.42;56.68;98521.56;4923058;28;102241;-53
2022/07/05 00:19:41;;;;;;;;;3.00;3.00;;;;;26.41;56.93;98525.44;4930763;28;102415;-53
2022/07/05 00:22:08;;;;;;;;;3.67;3.67;;;;;26.41;56.90;98519.91;4923717;28;104113;-53
2022/07/05 00:24:35;;;;;;;;;4.00;4.00;;;;;26.42;56.91;98518.78;4929923;28;103001;-53
2022/07/05 00:27:03;;;;;;;;;4.00;4.00;;;;;26.41;56.98;98514.34;4929076;28;102281;-53
2022/07/05 00:29:30;;;;;;;;;3.67;3.67;;;;;26.40;56.91;98504.38;4931673;28;102561;-53
2022/07/05 00:31:57;;;;;;;;;3.67;3.33;;;;;26.41;56.83;98503.28;4936496;28;104270;-54
2022/07/05 00:34:24;;;;;;;;;5.33;4.67;;;;;26.40;56.59;98496.06;4935266;28;102077;-53
2022/07/05 00:36:51;;;;;;;;;4.33;3.33;;;;;26.41;56.42;98499.66;4933257;28;102603;-53
2022/07/05 00:39:18;;;;;;;;;4.00;3.00;;;;;26.41;56.37;98503.28;4928669;28;102184;-53
2022/07/05 00:41:45;;;;;;;;;5.00;4.00;;;;;26.40;56.06;98501.63;4939120;28;104018;-53
2022/07/05 00:44:15;;;;;;;;;3.00;3.00;;;;;26.41;56.06;98510.75;4914292;28;102202;-54
2022/07/05 00:46:43;;;;;;;;;2.67;2.67;;;;;26.40;56.14;98512.72;4929430;28;102581;-53
2022/07/05 00:49:10;;;;;;;;;4.00;3.67;;;;;26.41;56.19;98508.81;4926292;28;102168;-53
2022/07/05 00:51:38;;;;;;;;;3.00;3.00;;;;;26.42;56.13;98512.41;4934934;28;104139;-53
2022/07/05 00:54:21;;;;;;;;;3.33;2.33;;;;;26.40;56.38;98498.84;4929930;28;102464;-54
2022/07/05 00:56:48;;;;;;;;;3.33;3.33;;;;;26.41;56.65;98508.81;4922193;28;102702;-53
2022/07/05 00:59:20;;;;;;;;;3.67;3.00;;;;;26.40;56.66;98504.38;4922453;28;104124;-53
2022/07/05 01:01:47;;;;;;;;;4.67;4.00;;;;;26.41;56.62;98510.75;4923140;28;104060;-53
2022/07/05 01:04:14;;;;;;;;;4.33;4.33;;;;;26.40;56.44;98498.84;4916887;28;102428;-53
2022/07/05 01:06:43;;;;;;;;;4.67;4.67;;;;;26.40;56.37;98492.47;4916218;28;102677;-53
2022/07/05 01:09:13;;;;;;;;;2.33;2.33;;;;;26.39;56.40;98501.91;4891437;28;104185;-53
2022/07/05 01:11:40;;;;;;;;;5.00;4.67;;;;;26.39;56.19;98499.97;4872737;28;103922;-53
2022/07/05 01:14:10;;;;;;;;;3.33;3.33;;;;;26.38;56.01;98498.34;4897767;28;102436;-54
2022/07/05 01:16:38;;;;;;;;;3.67;3.00;;;;;26.39;55.82;98488.88;4940639;28;102287;-54
2022/07/05 01:19:08;;;;;;;;;3.67;3.67;;;;;26.39;55.52;98488.06;4936845;28;102216;-53
2022/07/05 01:21:40;;;;;;;;;5.00;5.00;;;;;26.38;56.10;98484.47;4938583;28;104349;-54
2022/07/05 01:24:12;;;;;;;;;3.33;3.33;;;;;26.39;55.72;98482.50;4933949;28;102153;-53
2022/07/05 01:26:39;;;;;;;;;4.00;4.00;;;;;26.38;55.87;98476.16;4934682;28;102323;-54
2022/07/05 01:29:06;;;;;;;;;5.00;5.00;;;;;26.38;55.84;98481.72;4936706;28;102577;-53
2022/07/05 01:31:37;;;;;;;;;4.00;4.00;;;;;26.37;56.04;98485.59;4926437;28;104079;-54
2022/07/05 01:34:05;;;;;;;;;4.00;4.00;;;;;26.38;55.98;98490.03;4930953;28;102185;-54
2022/07/05 01:36:35;;;;;;;;;4.00;4.00;;;;;26.37;55.95;98491.16;4938750;28;102403;-53
2022/07/05 01:39:03;;;;;;;;;5.00;5.00;;;;;26.37;56.02;98485.59;4938002;28;102242;-53
2022/07/05 01:41:31;;;;;;;;;4.00;4.00;;;;;26.37;55.97;98485.59;4903788;28;108917;-53
2022/07/05 01:43:59;;;;;;;;;4.67;4.67;;;;;26.37;55.82;98485.59;4912381;28;102244;-53
2022/07/05 01:46:26;;;;;;;;;4.00;4.00;;;;;26.37;55.68;98482.84;4911556;28;102325;-53
2022/07/05 01:48:55;;;;;;;;;5.00;5.00;;;;;26.36;55.77;98486.72;4932832;28;103204;-53
2022/07/05 01:51:27;;;;;;;;;4.00;4.00;;;;;26.37;55.51;98493.91;4925661;28;104235;-53
2022/07/05 01:53:54;;;;;;;;;4.00;4.00;;;;;26.37;55.63;98485.59;4931397;28;103339;-53
2022/07/05 01:56:21;;;;;;;;;4.00;4.00;;;;;26.37;55.49;98491.16;4926118;28;102652;-53
2022/07/05 01:58:48;;;;;;;;;5.00;5.00;;;;;26.37;55.58;98485.59;4918837;28;102519;-53
2022/07/05 02:01:16;;;;;;;;;5.00;5.00;;;;;26.36;55.69;98481.19;4911294;28;103517;-53
2022/07/05 02:03:43;;;;;;;;;4.00;3.67;;;;;26.37;55.69;98485.59;4916971;28;102140;-53
2022/07/05 02:06:23;;;;;;;;;4.33;4.33;;;;;26.36;55.78;98478.41;4945127;28;102245;-53
2022/07/05 02:08:49;;;;;;;;;4.67;3.00;;;;;26.36;55.83;98481.19;4926485;28;102198;-54
2022/07/05 02:11:16;;;;;;;;;4.00;3.00;;;;;26.35;55.81;98467.63;4922479;28;104074;-53
2022/07/05 02:13:43;;;;;;;;;3.67;3.67;;;;;26.35;55.70;98468.44;4929828;28;103004;-53
2022/07/05 02:16:10;;;;;;;;;5.00;4.00;;;;;26.35;55.62;98460.13;4941458;28;102110;-54
2022/07/05 02:18:37;;;;;;;;;3.67;3.00;;;;;26.34;55.55;98461.28;4934202;28;102450;-54
2022/07/05 02:21:04;;;;;;;;;5.00;5.00;;;;;26.34;55.43;98464.03;4938617;28;104656;-53
2022/07/05 02:23:31;;;;;;;;;5.00;5.00;;;;;26.34;55.43;98458.50;4943322;28;104205;-53
2022/07/05 02:25:58;;;;;;;;;4.33;4.00;;;;;26.33;55.28;98467.94;4936495;28;102058;-53
2022/07/05 02:28:25;;;;;;;;;5.00;5.00;;;;;26.33;55.48;98467.94;4938965;28;102612;-53
2022/07/05 02:30:52;;;;;;;;;4.33;4.00;;;;;26.32;55.32;98469.06;4940371;28;103894;-53
2022/07/05 02:33:19;;;;;;;;;3.00;3.00;;;;;26.32;55.55;98463.50;4933919;28;102206;-53
2022/07/05 02:35:46;;;;;;;;;4.33;4.33;;;;;26.32;55.62;98469.06;4937775;28;102289;-53
2022/07/05 02:38:13;;;;;;;;;4.67;4.67;;;;;26.32;55.58;98477.38;4923656;28;102244;-54
2022/07/05 02:40:40;;;;;;;;;5.67;5.00;;;;;26.32;55.74;98473.78;4929766;28;104229;-54
2022/07/05 02:43:07;;;;;;;;;4.00;4.00;;;;;26.32;55.65;98471.84;4936549;28;104017;-54
2022/07/05 02:45:34;;;;;;;;;6.00;4.67;;;;;26.31;55.73;98484.03;4935461;28;108989;-53
2022/07/05 02:48:01;;;;;;;;;3.33;3.33;;;;;26.31;55.72;98481.28;4939706;28;104022;-53
2022/07/05 02:50:28;;;;;;;;;4.33;4.33;;;;;26.30;55.61;98482.41;4933233;28;104080;-53
2022/07/05 02:52:55;;;;;;;;;6.00;5.00;;;;;26.29;55.45;98483.53;4939564;28;102489;-53
2022/07/05 02:55:22;;;;;;;;;5.00;4.67;;;;;26.31;55.43;98481.28;4925528;28;102747;-53
2022/07/05 02:57:49;;;;;;;;;6.00;6.00;;;;;26.30;55.21;98478.81;4934927;28;102655;-54
2022/07/05 03:00:16;;;;;;;;;5.00;5.00;;;;;26.30;55.17;98476.84;4930761;28;104050;-54
2022/07/05 03:02:43;;;;;;;;;3.00;3.00;;;;;26.31;55.33;98480.44;4933610;28;102211;-54
2022/07/05 03:05:10;;;;;;;;;5.00;4.67;;;;;26.30;55.24;98478.81;4936397;28;102609;-55
2022/07/05 03:07:37;;;;;;;;;4.67;4.67;;;;;26.29;55.41;98491.88;4939092;28;102407;-53
2022/07/05 03:10:04;;;;;;;;;4.67;4.67;;;;;26.29;55.63;98493.81;4941154;28;108790;-53
2022/07/05 03:12:31;;;;;;;;;4.00;4.00;;;;;26.29;55.68;98491.03;4934633;28;103815;-53
2022/07/05 03:14:58;;;;;;;;;5.33;5.00;;;;;26.28;55.57;98481.91;4942028;28;102768;-54
2022/07/05 03:17:25;;;;;;;;;4.33;4.33;;;;;26.28;55.61;98490.22;4940723;28;102304;-53
2022/07/05 03:19:52;;;;;;;;;4.00;4.00;;;;;26.28;55.67;98487.44;4939444;28;103193;-53
2022/07/05 03:22:19;;;;;;;;;2.33;2.33;;;;;26.27;55.42;98494.09;4944129;28;102619;-54
2022/07/05 03:24:46;;;;;;;;;4.00;4.00;;;;;26.27;55.37;98501.59;4942232;28;102527;-54
2022/07/05 03:27:14;;;;;;;;;4.00;4.00;;;;;26.26;55.40;98495.22;4934671;28;102400;-54
2022/07/05 03:29:44;;;;;;;;;4.33;4.00;;;;;26.27;55.30;98507.97;4937407;28;104101;-54
2022/07/05 03:32:11;;;;;;;;;4.00;4.00;;;;;26.25;55.26;98503.88;4935388;28;103834;-54
2022/07/05 03:34:39;;;;;;;;;5.00;5.00;;;;;26.26;55.31;98505.50;4922060;28;102238;-54
2022/07/05 03:37:06;;;;;;;;;3.67;3.67;;;;;26.25;55.25;98518.56;4945327;28;102308;-53
2022/07/05 03:39:33;;;;;;;;;3.67;3.67;;;;;26.25;55.24;98514.97;4937526;28;104144;-53
2022/07/05 03:42:00;;;;;;;;;5.00;4.33;;;;;26.26;55.25;98516.56;4933746;28;103796;-53
2022/07/05 03:44:27;;;;;;;;;5.00;5.00;;;;;26.25;55.48;98521.31;4929709;28;102610;-54
2022/07/05 03:46:54;;;;;;;;;4.33;4.33;;;;;26.26;55.54;98516.56;4933075;28;102584;-53
2022/07/05 03:49:21;;;;;;;;;4.00;4.00;;;;;26.25;55.52;98520.50;4927913;28;105373;-53
2022/07/05 03:51:48;;;;;;;;;5.00;5.00;;;;;26.24;55.54;98516.06;4935571;28;103800;-54
2022/07/05 03:54:15;;;;;;;;;5.00;4.67;;;;;26.24;55.49;98522.44;4928568;28;104111;-54
2022/07/05 03:56:42;;;;;;;;;6.33;5.33;;;;;26.24;55.31;98524.41;4939504;28;102769;-54
2022/07/05 03:59:09;;;;;;;;;5.67;5.00;;;;;26.24;55.06;98525.22;4940312;28;104447;-53
2022/07/05 04:01:36;;;;;;;;;6.00;5.00;;;;;26.25;55.08;98517.72;4932105;28;102174;-53
2022/07/05 04:04:04;;;;;;;;;5.33;5.33;;;;;26.25;54.97;98526.88;4938771;28;102095;-54
2022/07/05 04:06:31;;;;;;;;;4.33;4.33;;;;;26.23;54.71;98531.88;4938244;28;102427;-53
2022/07/05 04:08:58;;;;;;;;;5.33;5.33;;;;;26.24;55.18;98535.47;4950337;28;104075;-53
2022/07/05 04:11:25;;;;;;;;;4.67;4.67;;;;;26.24;55.08;98538.25;4937300;28;102681;-54
2022/07/05 04:13:52;;;;;;;;;5.33;5.00;;;;;26.25;55.16;98542.69;4933448;28;102483;-54
2022/07/05 04:16:19;;;;;;;;;3.67;3.00;;;;;26.25;55.62;98537.97;4927355;28;102577;-53
2022/07/05 04:18:46;;;;;;;;;4.33;4.33;;;;;26.25;55.81;98534.38;4926897;28;104049;-53
2022/07/05 04:21:13;;;;;;;;;4.00;4.00;;;;;26.25;55.87;98553.78;4929324;28;102500;-54
2022/07/05 04:23:40;;;;;;;;;3.33;3.00;;;;;26.23;55.81;98545.75;4939839;28;102196;-53
2022/07/05 04:26:07;;;;;;;;;4.00;4.00;;;;;26.23;55.54;98556.84;4937471;28;102173;-53
2022/07/05 04:28:35;;;;;;;;;4.67;4.33;;;;;26.23;55.86;98556.00;4928381;28;105173;-53
2022/07/05 04:31:02;;;;;;;;;4.00;4.00;;;;;26.22;55.94;98560.72;4923350;28;102250;-53
2022/07/05 04:33:29;;;;;;;;;5.67;5.67;;;;;26.21;55.89;98564.63;4936353;28;102338;-54
2022/07/05 04:35:56;;;;;;;;;5.00;5.00;;;;;26.21;55.71;98564.63;4936169;28;102362;-53
2022/07/05 04:38:23;;;;;;;;;3.00;3.00;;;;;26.22;56.06;98565.44;4919791;28;104176;-54
2022/07/05 04:40:50;;;;;;;;;5.00;4.33;;;;;26.22;55.87;98559.91;4923062;28;101994;-53
2022/07/05 04:43:17;;;;;;;;;3.00;3.00;;;;;26.22;55.98;98565.44;4933904;28;104014;-54
2022/07/05 04:45:44;;;;;;;;;3.67;3.67;;;;;26.21;55.58;98561.84;4934597;28;102477;-55
2022/07/05 04:48:12;;;;;;;;;6.00;5.00;;;;;26.21;55.63;98559.06;4931250;28;103805;-54
2022/07/05 04:50:39;;;;;;;;;3.67;3.67;;;;;26.21;55.57;98559.06;4941401;28;102419;-54
2022/07/05 04:53:06;;;;;;;;;4.33;3.00;;;;;26.21;55.85;98567.38;4922422;28;102263;-54
2022/07/05 04:55:34;;;;;;;;;4.33;4.33;;;;;26.21;55.99;98564.63;4928969;28;102358;-54
2022/07/05 04:58:02;;;;;;;;;3.00;3.00;;;;;26.21;55.64;98561.06;4935660;28;104416;-54
2022/07/05 05:00:29;;;;;;;;;3.33;2.67;;;;;26.21;55.47;98564.63;4916015;28;102043;-54
2022/07/05 05:02:56;;;;;;;;;4.33;4.33;;;;;26.22;55.73;98560.72;4900772;28;102397;-54
2022/07/05 05:05:23;;;;;;;;;4.00;4.00;;;;;26.23;55.43;98562.38;4915682;28;102373;-54
2022/07/05 05:07:51;;;;;;;;;5.00;4.00;;;;;26.23;55.63;98561.56;4898055;28;104239;-54
2022/07/05 05:10:18;;;;;;;;;4.00;4.00;;;;;26.21;55.36;98564.63;4925166;28;102113;-54
2022/07/05 05:12:45;;;;;;;;;5.00;4.00;;;;;26.21;55.50;98558.28;4936904;28;103099;-54
2022/07/05 05:15:12;;;;;;;;;3.33;3.00;;;;;26.21;55.79;98569.38;4930155;28;103108;-54
2022/07/05 05:17:40;;;;;;;;;6.00;6.00;;;;;26.21;56.36;98572.94;4938801;28;109755;-54
2022/07/05 05:20:10;;;;;;;;;3.33;3.00;;;;;26.21;56.46;98563.81;4932385;28;102206;-54
2022/07/05 05:22:37;;;;;;;;;5.00;3.33;;;;;26.19;56.28;98553.00;4931190;28;102179;-54
2022/07/05 05:25:05;;;;;;;;;4.67;4.67;;;;;26.18;56.62;98559.66;4945420;28;102149;-54
2022/07/05 05:27:32;;;;;;;;;4.67;4.67;;;;;26.17;56.80;98558.84;4941600;28;104117;-54
2022/07/05 05:29:59;;;;;;;;;4.33;4.00;;;;;26.17;56.66;98558.84;4941964;28;102988;-54
2022/07/05 05:32:26;;;;;;;;;3.67;3.00;;;;;26.17;56.87;98564.38;4932788;28;102088;-54
2022/07/05 05:34:53;;;;;;;;;4.00;4.00;;;;;26.17;56.62;98566.31;4931787;28;102205;-54
2022/07/05 05:37:20;;;;;;;;;4.33;4.33;;;;;26.16;56.73;98557.19;4934513;28;104197;-54
2022/07/05 05:39:47;;;;;;;;;4.33;4.33;;;;;26.16;56.61;98561.94;4931316;28;102413;-54
2022/07/05 05:42:14;;;;;;;;;4.00;4.00;;;;;26.14;56.63;98559.44;4948127;28;102375;-56
2022/07/05 05:44:41;;;;;;;;;4.00;4.00;;;;;26.15;56.98;98563.03;4940843;28;102451;-54
2022/07/05 05:47:08;;;;;;;;;5.00;5.00;;;;;26.14;56.62;98569.72;4942172;28;103982;-54
2022/07/05 05:49:42;;;;;;;;;4.00;3.67;;;;;26.14;56.65;98575.25;4935672;28;102345;-54
2022/07/05 05:52:09;;;;;;;;;4.00;4.00;;;;;26.13;56.59;98577.19;4937321;28;102273;-54
2022/07/05 05:54:36;;;;;;;;;3.00;3.00;;;;;26.14;56.60;98578.84;4940210;28;102971;-54
2022/07/05 05:57:03;;;;;;;;;3.00;3.00;;;;;26.15;56.96;98576.91;4933908;28;104155;-54
2022/07/05 05:59:30;;;;;;;;;4.67;4.33;;;;;26.15;56.92;98574.13;4928315;28;102611;-54
2022/07/05 06:01:57;;;;;;;;;4.00;4.00;;;;;26.16;57.16;98584.09;4934564;28;102167;-54
2022/07/05 06:04:24;;;;;;;;;5.67;5.67;;;;;26.16;57.42;98592.41;4942764;28;104004;-54
2022/07/05 06:06:51;;;;;;;;;4.00;3.00;;;;;26.16;56.86;98595.19;4939375;28;104538;-54
2022/07/05 06:09:18;;;;;;;;;3.00;3.00;;;;;26.16;56.86;98603.50;4943429;28;103168;-54
2022/07/05 06:11:45;;;;;;;;;4.00;4.00;;;;;26.17;56.98;98607.91;4939207;28;102394;-56
2022/07/05 06:14:12;;;;;;;;;3.33;3.00;;;;;26.15;56.86;98622.06;4937629;28;102507;-54
2022/07/05 06:16:41;;;;;;;;;2.67;2.67;;;;;26.15;56.99;98613.75;4929070;28;108903;-54
2022/07/05 06:19:08;;;;;;;;;4.00;4.00;;;;;26.15;57.00;98627.63;4924441;28;102162;-54
2022/07/05 06:21:35;;;;;;;;;4.00;4.00;;;;;26.14;57.18;98625.97;4931619;28;102318;-54
2022/07/05 06:24:02;;;;;;;;;3.33;3.33;;;;;26.14;57.01;98637.06;4944138;28;102550;-54
2022/07/05 06:26:29;;;;;;;;;5.00;4.67;;;;;26.14;56.62;98630.69;4935498;28;103846;-54
2022/07/05 06:28:56;;;;;;;;;4.00;4.00;;;;;26.15;57.25;98632.34;4940867;28;102618;-54
2022/07/05 06:31:23;;;;;;;;;3.00;3.00;;;;;26.15;57.22;98640.66;4937835;28;102424;-54
2022/07/05 06:33:50;;;;;;;;;3.67;3.67;;;;;26.14;57.47;98636.22;4937056;28;102434;-54
2022/07/05 06:36:17;;;;;;;;;5.00;4.00;;;;;26.14;57.44;98636.22;4935208;28;103749;-54
2022/07/05 06:38:44;;;;;;;;;5.00;4.00;;;;;26.13;57.40;98632.63;4938829;28;102150;-54
2022/07/05 06:41:11;;;;;;;;;4.00;4.00;;;;;26.12;57.24;98628.22;4936673;28;102298;-54
2022/07/05 06:43:38;;;;;;;;;3.00;3.00;;;;;26.12;57.29;98628.22;4932757;28;102311;-54
2022/07/05 06:46:05;;;;;;;;;3.00;3.00;;;;;26.12;57.55;98625.44;4940492;28;104125;-54
2022/07/05 06:48:32;;;;;;;;;4.00;4.00;;;;;26.12;57.03;98625.44;4938052;28;102080;-54
2022/07/05 06:50:59;;;;;;;;;2.33;2.33;;;;;26.12;57.23;98619.88;4938754;28;102090;-54
2022/07/05 06:53:26;;;;;;;;;3.33;3.33;;;;;26.11;57.10;98615.50;4944194;28;102420;-54
2022/07/05 06:55:53;;;;;;;;;3.67;3.67;;;;;26.10;57.03;98615.78;4943231;28;104061;-54
2022/07/05 06:58:22;;;;;;;;;3.00;3.00;;;;;26.12;57.27;98616.28;4939459;28;103112;-54
2022/07/05 07:00:49;;;;;;;;;3.67;3.67;;;;;26.11;57.26;98614.66;4942657;28;102132;-54
2022/07/05 07:03:36;;;;;;;;;4.00;3.67;;;;;26.10;57.36;98611.06;4943238;28;102172;-54
2022/07/05 07:06:23;;;;;;;;;2.67;2.67;;;;;26.11;57.60;98609.94;4941841;28;107378;-54
2022/07/05 07:11:35;;;;;;;;;3.00;3.00;;;;;26.11;57.50;98609.94;4942096;28;102183;-54
2022/07/05 07:14:02;;;;;;;;;2.33;2.33;;;;;26.13;57.47;98595.78;4939867;28;102422;-54
2022/07/05 07:16:29;;;;;;;;;4.33;4.00;;;;;26.13;57.41;98601.31;4936608;28;104028;-54
2022/07/05 07:18:56;;;;;;;;;4.00;4.00;;;;;26.13;57.39;98593.00;4933438;28;104869;-54
2022/07/05 07:21:40;;;;;;;;;4.00;4.00;;;;;26.12;57.59;98594.94;4937983;28;102132;-54
2022/07/05 07:24:07;;;;;;;;;3.00;3.00;;;;;26.12;57.29;98596.88;4937723;28;102925;-54
2022/07/05 07:27:02;;;;;;;;;4.00;4.00;;;;;26.11;57.08;98598.03;4943470;28;104592;-54
2022/07/05 07:29:22;;;;;;;;;3.00;3.00;;;;;26.10;57.31;98601.94;4926863;28;102125;-54
2022/07/05 07:31:49;;;;;;;;;3.00;3.00;;;;;26.11;57.24;98606.34;4944046;28;102138;-54
2022/07/05 07:34:16;;;;;;;;;4.67;4.00;;;;;26.10;57.23;98619.38;4937340;28;110992;-57
2022/07/05 07:36:43;;;;;;;;;4.33;4.33;;;;;26.10;57.13;98611.06;4940085;28;104049;-54
2022/07/05 07:39:10;;;;;;;;;4.00;4.00;;;;;26.10;57.51;98613.00;4944812;28;102511;-54
2022/07/05 07:41:38;;;;;;;;;3.00;3.00;;;;;26.10;57.80;98615.78;4932538;28;102075;-54
2022/07/05 07:44:04;;;;;;;;;6.00;5.00;;;;;26.09;57.74;98620.50;4941407;28;102270;-54
2022/07/05 07:46:32;;;;;;;;;3.00;3.00;;;;;26.10;57.78;98624.09;4944337;28;103983;-54
2022/07/05 07:48:59;;;;;;;;;3.33;3.33;;;;;26.07;57.84;98619.97;4944713;28;102234;-55
2022/07/05 07:51:27;;;;;;;;;4.33;3.33;;;;;26.09;57.61;98619.69;4940382;28;102329;-54
2022/07/05 07:53:54;;;;;;;;;2.67;2.67;;;;;26.09;57.67;98636.31;4940095;28;102353;-54
2022/07/05 07:56:38;;;;;;;;;3.33;3.00;;;;;26.09;57.68;98647.41;4942352;28;104027;-54
2022/07/05 07:59:05;;;;;;;;;3.00;2.33;;;;;26.08;57.49;98638.25;4942060;28;102143;-53
2022/07/05 08:01:32;;;;;;;;;4.00;4.00;;;;;26.07;57.70;98642.13;4936225;28;103958;-54
2022/07/05 08:04:01;;;;;;;;;2.00;2.00;;;;;26.08;57.59;98642.97;4937963;28;102402;-54
2022/07/05 08:06:29;;;;;;;;;3.67;3.33;;;;;26.08;57.52;98645.75;4939037;28;104257;-54
2022/07/05 08:08:56;;;;;;;;;3.00;3.00;;;;;26.07;57.36;98635.81;4937064;28;108316;-53
2022/07/05 08:11:23;;;;;;;;;4.33;3.00;;;;;26.06;57.51;98634.97;4931246;28;102331;-54
2022/07/05 08:13:50;;;;;;;;;4.00;4.00;;;;;26.06;57.55;98634.16;4938104;28;102203;-54
2022/07/05 08:16:17;;;;;;;;;2.00;2.00;;;;;26.07;57.86;98635.81;4938774;28;104126;-54
2022/07/05 08:21:39;;;;;;;;;3.33;2.33;;;;;26.07;57.74;98658.78;4939526;28;102153;-54
2022/07/05 08:24:11;;;;;;;;;3.00;3.00;;;;;26.09;57.62;98659.31;4942644;28;104144;-54
2022/07/05 08:26:38;;;;;;;;;4.33;3.33;;;;;26.09;57.47;98655.72;4946264;28;104086;-53
2022/07/05 08:29:07;;;;;;;;;2.67;2.67;;;;;26.07;57.48;98644.13;4940842;28;102188;-53
2022/07/05 08:31:46;;;;;;;;;4.00;4.00;;;;;26.08;57.63;98645.75;4939850;28;102229;-53
2022/07/05 08:34:13;;;;;;;;;4.00;3.00;;;;;26.07;57.52;98650.44;4939444;28;102389;-53
2022/07/05 08:36:41;;;;;;;;;2.00;2.00;;;;;26.07;57.47;98652.44;4943218;28;104088;-53
2022/07/05 08:39:08;;;;;;;;;3.00;3.00;;;;;26.06;57.59;98651.59;4929473;28;102386;-53
2022/07/05 08:41:37;;;;;;;;;3.33;3.00;;;;;26.07;57.56;98652.44;4942457;28;102272;-53
2022/07/05 08:44:04;;;;;;;;;4.00;4.00;;;;;26.05;57.58;98647.19;4939063;28;102116;-54
2022/07/05 08:46:32;;;;;;;;;2.00;2.00;;;;;26.05;57.75;98654.66;4943728;28;105160;-54
2022/07/05 08:49:02;;;;;;;;;4.00;4.00;;;;;26.06;57.83;98650.78;4939904;28;102221;-53
2022/07/05 08:51:40;;;;;;;;;3.00;3.00;;;;;26.05;57.76;98644.41;4943919;28;102349;-53
2022/07/05 08:54:09;;;;;;;;;5.00;5.00;;;;;26.04;57.66;98648.28;4927348;28;102166;-53
2022/07/05 08:56:36;;;;;;;;;3.00;3.00;;;;;26.04;57.78;98648.28;4937178;28;103971;-54
2022/07/05 08:59:23;;;;;;;;;3.00;2.67;;;;;26.05;57.72;98651.91;4935259;28;102302;-54
2022/07/05 09:01:50;;;;;;;;;3.00;2.00;;;;;26.04;57.72;98651.06;4933850;28;102230;-54
2022/07/05 09:04:17;;;;;;;;;4.00;4.00;;;;;26.04;57.49;98653.00;4950209;28;104701;-53
2022/07/05 09:06:46;;;;;;;;;3.00;2.00;;;;;26.04;57.36;98647.47;4941900;28;109987;-53
2022/07/05 09:09:13;;;;;;;;;4.00;4.00;;;;;26.04;57.76;98653.00;4954324;28;102254;-54
2022/07/05 09:11:41;;;;;;;;;3.33;3.00;;;;;26.04;57.73;98664.09;4942808;28;102197;-54
2022/07/05 09:14:24;;;;;;;;;3.33;3.33;;;;;26.04;57.31;98648.28;4936112;28;102387;-54
2022/07/05 09:16:55;;;;;;;;;3.67;3.00;;;;;26.04;57.41;98641.94;4972891;28;104093;-54
2022/07/05 09:19:22;;;;;;;;;5.33;3.33;;;;;26.05;57.63;98649.94;4946106;28;102336;-53
2022/07/05 09:22:03;;;;;;;;;0.00;0.00;;;;;26.06;58.03;98642.47;4939853;28;102363;-54
2022/07/05 09:24:31;;;;;;;;;4.00;4.00;;;;;26.07;58.03;98633.03;4962919;28;102590;-53
2022/07/05 09:27:04;;;;;;;;;4.00;4.00;;;;;26.06;57.91;98629.44;4937441;28;104143;-54
2022/07/05 09:29:31;;;;;;;;;2.00;2.00;;;;;26.08;57.84;98632.72;4938530;28;102194;-53
2022/07/05 09:32:26;;;;;;;;;3.00;3.00;;;;;26.10;57.94;98646.28;4936326;28;102423;-54
2022/07/05 09:34:51;;;;;;;;;3.00;3.00;;;;;26.08;57.77;98648.50;4933191;28;103485;-54
2022/07/05 09:37:18;;;;;;;;;3.00;3.00;;;;;26.08;57.51;98648.50;4932630;28;104032;-57
2022/07/05 09:39:45;;;;;;;;;1.67;1.67;;;;;26.08;57.55;98648.50;4949957;28;102366;-54
2022/07/05 09:42:26;;;;;;;;;3.00;3.00;;;;;26.07;57.48;98644.91;4941710;28;102020;-54
2022/07/05 09:44:54;;;;;;;;;4.00;4.00;;;;;26.08;57.35;98645.75;4936689;28;102551;-54
2022/07/05 09:47:22;;;;;;;;;5.00;4.00;;;;;26.08;57.40;98642.97;4939704;28;104054;-54
2022/07/05 09:49:50;;;;;;;;;2.00;2.00;;;;;26.08;57.31;98631.88;4946509;28;102394;-55
2022/07/05 09:52:37;;;;;;;;;2.67;2.67;;;;;26.08;57.45;98643.78;4939494;28;102213;-54
2022/07/05 09:55:08;;;;;;;;;2.67;2.67;;;;;26.09;57.35;98645.44;4932435;28;102448;-54
2022/07/05 09:57:39;;;;;;;;;3.00;2.67;;;;;26.09;57.45;98639.06;4956220;28;104115;-54
2022/07/05 10:00:07;;;;;;;;;3.67;3.67;;;;;26.10;57.19;98646.28;4936429;28;102540;-54
2022/07/05 10:02:42;;;;;;;;;4.00;3.33;;;;;26.09;57.15;98650.16;4936734;28;102600;-54
2022/07/05 10:05:19;;;;;;;;;2.67;2.00;;;;;26.09;57.11;98647.41;4941925;28;102238;-54
2022/07/05 10:07:48;;;;;;;;;2.33;2.33;;;;;26.08;57.14;98649.34;4939029;28;108838;-54
2022/07/05 10:10:16;;;;;;;;;2.33;2.33;;;;;26.08;57.01;98654.88;4938185;28;102165;-54
2022/07/05 10:12:44;;;;;;;;;4.00;4.00;;;;;26.09;56.97;98655.72;4939899;28;102423;-54
2022/07/05 10:15:13;;;;;;;;;2.00;2.00;;;;;26.08;56.93;98665.13;4941861;28;103095;-54
2022/07/05 10:17:42;;;;;;;;;3.00;3.00;;;;;26.08;56.97;98654.06;4944427;28;104431;-54
2022/07/05 10:20:24;;;;;;;;;2.67;2.67;;;;;26.08;57.01;98660.44;4932957;28;102262;-55
2022/07/05 10:22:51;;;;;;;;;3.00;3.00;;;;;26.08;56.96;98660.44;4959404;28;102541;-55
2022/07/05 10:25:18;;;;;;;;;3.67;3.00;;;;;26.09;56.94;98666.78;4940441;28;102625;-55
2022/07/05 10:27:45;;;;;;;;;1.00;1.00;;;;;26.09;57.06;98661.25;4943635;28;109635;-54
2022/07/05 10:30:12;;;;;;;;;3.00;2.67;;;;;26.10;56.85;98669.28;4938960;28;102212;-55
2022/07/05 10:32:40;;;;;;;;;3.00;3.00;;;;;26.12;56.77;98666.19;4937387;28;102266;-55
2022/07/05 10:35:07;;;;;;;;;3.00;2.00;;;;;26.13;56.62;98673.38;4947463;28;102146;-52
2022/07/05 10:37:35;;;;;;;;;3.00;3.00;;;;;26.13;56.63;98673.38;4937345;28;105069;-53
2022/07/05 10:40:04;;;;;;;;;3.00;3.00;;;;;26.13;56.56;98676.16;4944095;28;102507;-54
2022/07/05 10:42:33;;;;;;;;;2.33;2.33;;;;;26.13;56.58;98679.75;4937055;28;102072;-55
2022/07/05 10:45:00;;;;;;;;;1.00;1.00;;;;;26.13;56.75;98681.69;4977629;28;102498;-55
2022/07/05 10:47:29;;;;;;;;;3.33;3.33;;;;;26.12;56.64;98680.88;4939002;28;104288;-56
2022/07/05 10:50:01;;;;;;;;;3.67;3.67;;;;;26.12;56.61;98677.28;4903412;28;102574;-55
2022/07/05 10:52:28;;;;;;;;;2.33;2.33;;;;;26.13;56.60;98681.69;4948018;28;102381;-55
2022/07/05 10:55:17;;;;;;;;;3.00;3.00;;;;;26.12;56.57;98680.03;4945810;28;102465;-55
2022/07/05 10:57:44;;;;;;;;;3.00;3.00;;;;;26.11;56.38;98679.25;4935994;28;108902;-55
2022/07/05 11:00:11;;;;;;;;;2.00;2.00;;;;;26.12;56.67;98682.81;4941811;28;102965;-55
2022/07/05 11:02:39;;;;;;;;;4.00;3.00;;;;;26.12;56.35;98680.88;4941172;28;102184;-55
2022/07/05 11:05:06;;;;;;;;;2.67;2.67;;;;;26.13;56.25;98679.75;4944945;28;102362;-55
2022/07/05 11:07:57;;;;;;;;;3.00;3.00;;;;;26.12;56.40;98671.72;4970786;28;104052;-55
2022/07/05 11:10:24;;;;;;;;;2.00;2.00;;;;;26.12;56.25;98663.41;4941752;28;102070;-55
2022/07/05 11:12:51;;;;;;;;;3.00;3.00;;;;;26.12;56.36;98666.19;4938540;28;102086;-55
2022/07/05 11:15:18;;;;;;;;;2.00;2.00;;;;;26.12;56.28;98660.63;4939954;28;102096;-55
2022/07/05 11:17:45;;;;;;;;;3.00;3.00;;;;;26.10;56.34;98669.28;4935050;28;108942;-55
2022/07/05 11:20:29;;;;;;;;;2.00;2.00;;;;;26.11;56.31;98667.34;4939901;28;102359;-55
2022/07/05 11:23:06;;;;;;;;;3.00;3.00;;;;;26.11;56.33;98670.09;4940196;28;102166;-53
2022/07/05 11:25:35;;;;;;;;;3.67;3.67;;;;;26.09;56.29;98661.25;4944058;28;102407;-53
2022/07/05 11:28:15;;;;;;;;;2.00;2.00;;;;;26.10;56.24;98669.28;4932355;28;104094;-53
2022/07/05 11:31:01;;;;;;;;;4.00;3.33;;;;;26.10;56.28;98665.69;4940728;28;102387;-53
2022/07/05 11:33:42;;;;;;;;;3.00;3.00;;;;;26.11;56.23;98667.34;4940878;28;102169;-53
2022/07/05 11:36:25;;;;;;;;;4.00;2.00;;;;;26.10;56.14;98672.03;4940329;28;105019;-53
2022/07/05 11:39:17;;;;;;;;;1.67;1.67;;;;;26.12;56.03;98663.41;4921774;28;108833;-53